Home > Products > Valid Products > TAF

000
FTUS45 KBOI 312329
TAFBKE
TAF
KBKE 312329Z 0100/0124 VRB06KT P6SM SCT150=



000
FTUS45 KBOI 312329
TAFBOI
TAF
KBOI 312329Z 0100/0124 30009KT P6SM SKC
     FM010400 14005KT P6SM SKC
     FM012100 30007KT P6SM SCT230=



000
FTUS45 KBOI 312329
TAFBNO
TAF
KBNO 312329Z 0100/0124 VRB06KT P6SM SCT150=



000
FTUS45 KBOI 312329
TAFMYL
TAF
KMYL 312329Z 0100/0124 VRB06KT P6SM FEW150
     FM012100 24009KT P6SM FEW150=



000
FTUS45 KBOI 312329
TAFJER
TAF
KJER 312329Z 0100/0124 25005KT P6SM SKC
     FM010500 07007KT P6SM SKC
     FM012100 24005KT P6SM SCT200=



000
FTUS45 KBOI 312329
TAFTWF
TAF
KTWF 312329Z 0100/0124 35005KT P6SM SKC
     FM010500 18010KT P6SM SKC
     FM011700 36007KT P6SM SCT200=



000
FTUS45 KBOI 312329
TAFMYL
TAF
KMYL 312329Z 0100/0124 VRB06KT P6SM FEW150
     FM012100 24009KT P6SM FEW150=



000
FTUS45 KBOI 312329
TAFBNO
TAF
KBNO 312329Z 0100/0124 VRB06KT P6SM SCT150=



000
FTUS45 KBOI 312329
TAFBKE
TAF
KBKE 312329Z 0100/0124 VRB06KT P6SM SCT150=



000
FTUS45 KBOI 312329
TAFTWF
TAF
KTWF 312329Z 0100/0124 35005KT P6SM SKC
     FM010500 18010KT P6SM SKC
     FM011700 36007KT P6SM SCT200=



000
FTUS45 KBOI 312329
TAFBNO
TAF
KBNO 312329Z 0100/0124 VRB06KT P6SM SCT150=



000
FTUS45 KBOI 312329
TAFMYL
TAF
KMYL 312329Z 0100/0124 VRB06KT P6SM FEW150
     FM012100 24009KT P6SM FEW150=



000
FTUS45 KBOI 312329
TAFBKE
TAF
KBKE 312329Z 0100/0124 VRB06KT P6SM SCT150=



000
FTUS45 KBOI 312329
TAFBOI
TAF
KBOI 312329Z 0100/0124 30009KT P6SM SKC
     FM010400 14005KT P6SM SKC
     FM012100 30007KT P6SM SCT230=



000
FTUS45 KBOI 312329
TAFJER
TAF
KJER 312329Z 0100/0124 25005KT P6SM SKC
     FM010500 07007KT P6SM SKC
     FM012100 24005KT P6SM SCT200=



000
FTUS45 KBOI 312329
TAFBNO
TAF
KBNO 312329Z 0100/0124 VRB06KT P6SM SCT150=



000
FTUS45 KBOI 312329
TAFMYL
TAF
KMYL 312329Z 0100/0124 VRB06KT P6SM FEW150
     FM012100 24009KT P6SM FEW150=



000
FTUS45 KBOI 312329
TAFJER
TAF
KJER 312329Z 0100/0124 25005KT P6SM SKC
     FM010500 07007KT P6SM SKC
     FM012100 24005KT P6SM SCT200=



000
FTUS45 KBOI 312329
TAFTWF
TAF
KTWF 312329Z 0100/0124 35005KT P6SM SKC
     FM010500 18010KT P6SM SKC
     FM011700 36007KT P6SM SCT200=



000
FTUS45 KBOI 312329
TAFBKE
TAF
KBKE 312329Z 0100/0124 VRB06KT P6SM SCT150=



000
FTUS45 KBOI 312329
TAFBOI
TAF
KBOI 312329Z 0100/0124 30009KT P6SM SKC
     FM010400 14005KT P6SM SKC
     FM012100 30007KT P6SM SCT230=



000
FTUS45 KBOI 312329
TAFBOI
TAF
KBOI 312329Z 0100/0124 30009KT P6SM SKC
     FM010400 14005KT P6SM SKC
     FM012100 30007KT P6SM SCT230=



000
FTUS45 KBOI 312329
TAFTWF
TAF
KTWF 312329Z 0100/0124 35005KT P6SM SKC
     FM010500 18010KT P6SM SKC
     FM011700 36007KT P6SM SCT200=



000
FTUS45 KBOI 312329
TAFJER
TAF
KJER 312329Z 0100/0124 25005KT P6SM SKC
     FM010500 07007KT P6SM SKC
     FM012100 24005KT P6SM SCT200=



000
FTUS45 KBOI 311721
TAFTWF
TAF
KTWF 311721Z 3118/0118 35005KT P6SM SKC
     FM010500 19010KT P6SM SKC=



000
FTUS45 KBOI 311721
TAFBOI
TAF
KBOI 311721Z 3118/0118 VRB05KT P6SM SKC
     FM010400 14005KT P6SM SKC=



000
FTUS45 KBOI 311721
TAFJER
TAF
KJER 311721Z 3118/0118 VRB05KT P6SM SKC=



000
FTUS45 KBOI 311721
TAFBKE
TAF
KBKE 311721Z 3118/0118 VRB06KT P6SM FEW120=



000
FTUS45 KBOI 311721
TAFMYL
TAF
KMYL 311721Z 3118/0118 VRB05KT P6SM SKC=



000
FTUS45 KBOI 311721
TAFBNO
TAF
KBNO 311721Z 3118/0118 VRB05KT P6SM SCT120=



000
FTUS45 KBOI 311721
TAFMYL
TAF
KMYL 311721Z 3118/0118 VRB05KT P6SM SKC=



000
FTUS45 KBOI 311721
TAFBNO
TAF
KBNO 311721Z 3118/0118 VRB05KT P6SM SCT120=



000
FTUS45 KBOI 311721
TAFJER
TAF
KJER 311721Z 3118/0118 VRB05KT P6SM SKC=



000
FTUS45 KBOI 311721
TAFTWF
TAF
KTWF 311721Z 3118/0118 35005KT P6SM SKC
     FM010500 19010KT P6SM SKC=



000
FTUS45 KBOI 311721
TAFBOI
TAF
KBOI 311721Z 3118/0118 VRB05KT P6SM SKC
     FM010400 14005KT P6SM SKC=



000
FTUS45 KBOI 311721
TAFBKE
TAF
KBKE 311721Z 3118/0118 VRB06KT P6SM FEW120=



000
FTUS45 KBOI 311124
TAFTWF
TAF
KTWF 311124Z 3112/0112 19009KT P6SM SKC
     FM311600 33008KT P6SM SKC
     FM010300 19010KT P6SM SKC=



000
FTUS45 KBOI 311124
TAFBKE
TAF
KBKE 311124Z 3112/0112 VRB06KT P6SM FEW120=



000
FTUS45 KBOI 311124
TAFBOI
TAF
KBOI 311124Z 3112/0112 13005KT P6SM SKC
     FM311800 31008KT P6SM SKC
     FM010400 14005KT P6SM SKC=



000
FTUS45 KBOI 311124
TAFTWF
TAF
KTWF 311124Z 3112/0112 19009KT P6SM SKC
     FM311600 33008KT P6SM SKC
     FM010300 19010KT P6SM SKC=



000
FTUS45 KBOI 311124
TAFMYL
TAF
KMYL 311124Z 3112/0112 VRB06KT P6SM SKC=



000
FTUS45 KBOI 311124
TAFBKE
TAF
KBKE 311124Z 3112/0112 VRB06KT P6SM FEW120=



000
FTUS45 KBOI 311124
TAFBOI
TAF
KBOI 311124Z 3112/0112 13005KT P6SM SKC
     FM311800 31008KT P6SM SKC
     FM010400 14005KT P6SM SKC=



000
FTUS45 KBOI 311124
TAFJER
TAF
KJER 311124Z 3112/0112 07007KT P6SM SKC
     FM311800 30007KT P6SM SKC
     FM010300 07007KT P6SM SKC=



000
FTUS45 KBOI 311124
TAFBNO
TAF
KBNO 311124Z 3112/0112 VRB06KT P6SM SCT120=



000
FTUS45 KBOI 311124
TAFBNO
TAF
KBNO 311124Z 3112/0112 VRB06KT P6SM SCT120=



000
FTUS45 KBOI 311124
TAFMYL
TAF
KMYL 311124Z 3112/0112 VRB06KT P6SM SKC=



000
FTUS45 KBOI 311124
TAFJER
TAF
KJER 311124Z 3112/0112 07007KT P6SM SKC
     FM311800 30007KT P6SM SKC
     FM010300 07007KT P6SM SKC=



000
FTUS45 KBOI 311124
TAFTWF
TAF
KTWF 311124Z 3112/0112 19009KT P6SM SKC
     FM311600 33008KT P6SM SKC
     FM010300 19010KT P6SM SKC=



000
FTUS45 KBOI 311124
TAFBOI
TAF
KBOI 311124Z 3112/0112 13005KT P6SM SKC
     FM311800 31008KT P6SM SKC
     FM010400 14005KT P6SM SKC=



000
FTUS45 KBOI 311124
TAFBKE
TAF
KBKE 311124Z 3112/0112 VRB06KT P6SM FEW120=



000
FTUS45 KBOI 311124
TAFJER
TAF
KJER 311124Z 3112/0112 07007KT P6SM SKC
     FM311800 30007KT P6SM SKC
     FM010300 07007KT P6SM SKC=



000
FTUS45 KBOI 311124
TAFBNO
TAF
KBNO 311124Z 3112/0112 VRB06KT P6SM SCT120=



000
FTUS45 KBOI 311124
TAFBNO
TAF
KBNO 311124Z 3112/0112 VRB06KT P6SM SCT120=



000
FTUS45 KBOI 311124
TAFMYL
TAF
KMYL 311124Z 3112/0112 VRB06KT P6SM SKC=



000
FTUS45 KBOI 311124
TAFBKE
TAF
KBKE 311124Z 3112/0112 VRB06KT P6SM FEW120=



000
FTUS45 KBOI 311124
TAFBOI
TAF
KBOI 311124Z 3112/0112 13005KT P6SM SKC
     FM311800 31008KT P6SM SKC
     FM010400 14005KT P6SM SKC=



000
FTUS45 KBOI 311124
TAFMYL
TAF
KMYL 311124Z 3112/0112 VRB06KT P6SM SKC=



000
FTUS45 KBOI 311124
TAFJER
TAF
KJER 311124Z 3112/0112 07007KT P6SM SKC
     FM311800 30007KT P6SM SKC
     FM010300 07007KT P6SM SKC=



000
FTUS45 KBOI 311124
TAFTWF
TAF
KTWF 311124Z 3112/0112 19009KT P6SM SKC
     FM311600 33008KT P6SM SKC
     FM010300 19010KT P6SM SKC=



000
FTUS45 KBOI 310520
TAFMYL
TAF
KMYL 310520Z 3106/0106 VRB06KT P6SM SKC=



000
FTUS45 KBOI 310520
TAFMYL
TAF
KMYL 310520Z 3106/0106 VRB06KT P6SM SKC=



000
FTUS45 KBOI 310520
TAFBNO
TAF
KBNO 310520Z 3106/0106 VRB06KT P6SM SCT100=



000
FTUS45 KBOI 310520
TAFBNO
TAF
KBNO 310520Z 3106/0106 VRB06KT P6SM SCT100=



000
FTUS45 KBOI 310520
TAFBOI
TAF
KBOI 310520Z 3106/0106 13007KT P6SM SKC
     FM311900 31007KT P6SM SKC
     FM010500 13005KT P6SM SKC=



000
FTUS45 KBOI 310520
TAFJER
TAF
KJER 310520Z 3106/0106 07007KT P6SM SKC
     FM311800 30007KT P6SM SKC
     FM010300 07007KT P6SM SKC=



000
FTUS45 KBOI 310520
TAFMYL
TAF
KMYL 310520Z 3106/0106 VRB06KT P6SM SKC=



000
FTUS45 KBOI 310520
TAFJER
TAF
KJER 310520Z 3106/0106 07007KT P6SM SKC
     FM311800 30007KT P6SM SKC
     FM010300 07007KT P6SM SKC=



000
FTUS45 KBOI 310520
TAFBOI
TAF
KBOI 310520Z 3106/0106 13007KT P6SM SKC
     FM311900 31007KT P6SM SKC
     FM010500 13005KT P6SM SKC=



000
FTUS45 KBOI 310520
TAFBNO
TAF
KBNO 310520Z 3106/0106 VRB06KT P6SM SCT100=



000
FTUS45 KBOI 310520
TAFJER
TAF
KJER 310520Z 3106/0106 07007KT P6SM SKC
     FM311800 30007KT P6SM SKC
     FM010300 07007KT P6SM SKC=



000
FTUS45 KBOI 310520
TAFBKE
TAF
KBKE 310520Z 3106/0106 VRB06KT P6SM FEW100=



000
FTUS45 KBOI 310520
TAFJER
TAF
KJER 310520Z 3106/0106 07007KT P6SM SKC
     FM311800 30007KT P6SM SKC
     FM010300 07007KT P6SM SKC=



000
FTUS45 KBOI 310520
TAFBNO
TAF
KBNO 310520Z 3106/0106 VRB06KT P6SM SCT100=



000
FTUS45 KBOI 310520
TAFBKE
TAF
KBKE 310520Z 3106/0106 VRB06KT P6SM FEW100=



000
FTUS45 KBOI 310520
TAFTWF
TAF
KTWF 310520Z 3106/0106 18009KT P6SM SKC
     FM311800 35007KT P6SM SKC
     FM010300 18009KT P6SM SKC=



000
FTUS45 KBOI 310520
TAFTWF
TAF
KTWF 310520Z 3106/0106 18009KT P6SM SKC
     FM311800 35007KT P6SM SKC
     FM010300 18009KT P6SM SKC=



000
FTUS45 KBOI 310520
TAFBKE
TAF
KBKE 310520Z 3106/0106 VRB06KT P6SM FEW100=



000
FTUS45 KBOI 310520
TAFTWF
TAF
KTWF 310520Z 3106/0106 18009KT P6SM SKC
     FM311800 35007KT P6SM SKC
     FM010300 18009KT P6SM SKC=



000
FTUS45 KBOI 310520
TAFBKE
TAF
KBKE 310520Z 3106/0106 VRB06KT P6SM FEW100=



000
FTUS45 KBOI 310520
TAFBOI
TAF
KBOI 310520Z 3106/0106 13007KT P6SM SKC
     FM311900 31007KT P6SM SKC
     FM010500 13005KT P6SM SKC=



000
FTUS45 KBOI 310520
TAFTWF
TAF
KTWF 310520Z 3106/0106 18009KT P6SM SKC
     FM311800 35007KT P6SM SKC
     FM010300 18009KT P6SM SKC=



000
FTUS45 KBOI 310520
TAFMYL
TAF
KMYL 310520Z 3106/0106 VRB06KT P6SM SKC=



000
FTUS45 KBOI 310520
TAFBOI
TAF
KBOI 310520Z 3106/0106 13007KT P6SM SKC
     FM311900 31007KT P6SM SKC
     FM010500 13005KT P6SM SKC=



000
FTUS45 KBOI 302334
TAFBKE
TAF
KBKE 302334Z 3100/3124 VRB06KT P6SM SKC=



000
FTUS45 KBOI 302334
TAFBOI
TAF
KBOI 302334Z 3100/3124 31008KT P6SM SKC
     FM310400 13007KT P6SM SKC
     FM311900 31007KT P6SM SKC=



000
FTUS45 KBOI 302334
TAFBNO
TAF
KBNO 302334Z 3100/3124 VRB06KT P6SM SKC=



000
FTUS45 KBOI 302334
TAFTWF
TAF
KTWF 302334Z 3100/3124 33008KT P6SM SKC
     FM310400 19009KT P6SM SKC
     FM311800 35007KT P6SM SKC=



000
FTUS45 KBOI 302334
TAFMYL
TAF
KMYL 302334Z 3100/3124 VRB06KT P6SM SKC=



000
FTUS45 KBOI 302334
TAFBKE
TAF
KBKE 302334Z 3100/3124 VRB06KT P6SM SKC=



000
FTUS45 KBOI 302334
TAFBKE
TAF
KBKE 302334Z 3100/3124 VRB06KT P6SM SKC=



000
FTUS45 KBOI 302334
TAFJER
TAF
KJER 302334Z 3100/3124 28007KT P6SM SKC
     FM310300 08007KT P6SM SKC
     FM311800 30007KT P6SM SKC=



000
FTUS45 KBOI 302334
TAFTWF
TAF
KTWF 302334Z 3100/3124 33008KT P6SM SKC
     FM310400 19009KT P6SM SKC
     FM311800 35007KT P6SM SKC=



000
FTUS45 KBOI 302334
TAFJER
TAF
KJER 302334Z 3100/3124 28007KT P6SM SKC
     FM310300 08007KT P6SM SKC
     FM311800 30007KT P6SM SKC=



000
FTUS45 KBOI 302334
TAFBNO
TAF
KBNO 302334Z 3100/3124 VRB06KT P6SM SKC=



000
FTUS45 KBOI 302334
TAFBNO
TAF
KBNO 302334Z 3100/3124 VRB06KT P6SM SKC=



000
FTUS45 KBOI 302334
TAFJER
TAF
KJER 302334Z 3100/3124 28007KT P6SM SKC
     FM310300 08007KT P6SM SKC
     FM311800 30007KT P6SM SKC=



000
FTUS45 KBOI 302334
TAFBOI
TAF
KBOI 302334Z 3100/3124 31008KT P6SM SKC
     FM310400 13007KT P6SM SKC
     FM311900 31007KT P6SM SKC=



000
FTUS45 KBOI 302334
TAFBKE
TAF
KBKE 302334Z 3100/3124 VRB06KT P6SM SKC=



000
FTUS45 KBOI 302334
TAFMYL
TAF
KMYL 302334Z 3100/3124 VRB06KT P6SM SKC=



000
FTUS45 KBOI 302334
TAFJER
TAF
KJER 302334Z 3100/3124 28007KT P6SM SKC
     FM310300 08007KT P6SM SKC
     FM311800 30007KT P6SM SKC=



000
FTUS45 KBOI 302334
TAFTWF
TAF
KTWF 302334Z 3100/3124 33008KT P6SM SKC
     FM310400 19009KT P6SM SKC
     FM311800 35007KT P6SM SKC=



000
FTUS45 KBOI 302334
TAFMYL
TAF
KMYL 302334Z 3100/3124 VRB06KT P6SM SKC=



000
FTUS45 KBOI 302334
TAFMYL
TAF
KMYL 302334Z 3100/3124 VRB06KT P6SM SKC=



000
FTUS45 KBOI 302334
TAFBNO
TAF
KBNO 302334Z 3100/3124 VRB06KT P6SM SKC=



000
FTUS45 KBOI 302334
TAFTWF
TAF
KTWF 302334Z 3100/3124 33008KT P6SM SKC
     FM310400 19009KT P6SM SKC
     FM311800 35007KT P6SM SKC=



000
FTUS45 KBOI 302334
TAFBOI
TAF
KBOI 302334Z 3100/3124 31008KT P6SM SKC
     FM310400 13007KT P6SM SKC
     FM311900 31007KT P6SM SKC=



000
FTUS45 KBOI 302334
TAFBOI
TAF
KBOI 302334Z 3100/3124 31008KT P6SM SKC
     FM310400 13007KT P6SM SKC
     FM311900 31007KT P6SM SKC=



000
FTUS45 KBOI 301726
TAFMYL
TAF
KMYL 301726Z 3018/3118 VRB04KT P6SM SKC=



000
FTUS45 KBOI 301726
TAFTWF
TAF
KTWF 301726Z 3018/3118 03008KT P6SM SKC
     FM310400 19009KT P6SM SKC=



000
FTUS45 KBOI 301726
TAFBKE
TAF
KBKE 301726Z 3018/3118 VRB04KT P6SM SKC=



000
FTUS45 KBOI 301726
TAFBOI
TAF
KBOI 301726Z 3018/3118 31008KT P6SM SKC
     FM310400 VRB04KT P6SM SKC
     FM311300 13007KT P6SM SKC=



000
FTUS45 KBOI 301726
TAFBNO
TAF
KBNO 301726Z 3018/3118 VRB05KT P6SM SKC
     FM311400 09007KT P6SM FEW110=



000
FTUS45 KBOI 301726
TAFBOI
TAF
KBOI 301726Z 3018/3118 31008KT P6SM SKC
     FM310400 VRB04KT P6SM SKC
     FM311300 13007KT P6SM SKC=



000
FTUS45 KBOI 301726
TAFBKE
TAF
KBKE 301726Z 3018/3118 VRB04KT P6SM SKC=



000
FTUS45 KBOI 301726
TAFMYL
TAF
KMYL 301726Z 3018/3118 VRB04KT P6SM SKC=



000
FTUS45 KBOI 301726
TAFTWF
TAF
KTWF 301726Z 3018/3118 03008KT P6SM SKC
     FM310400 19009KT P6SM SKC=



000
FTUS45 KBOI 301726
TAFBNO
TAF
KBNO 301726Z 3018/3118 VRB05KT P6SM SKC
     FM311400 09007KT P6SM FEW110=



000
FTUS45 KBOI 301726
TAFJER
TAF
KJER 301726Z 3018/3118 VRB06KT P6SM SKC
     FM302200 32010KT P6SM SKC
     FM310300 VRB04KT P6SM SKC=



000
FTUS45 KBOI 301726
TAFJER
TAF
KJER 301726Z 3018/3118 VRB06KT P6SM SKC
     FM302200 32010KT P6SM SKC
     FM310300 VRB04KT P6SM SKC=



000
FTUS45 KBOI 301726
TAFTWF
TAF
KTWF 301726Z 3018/3118 03008KT P6SM SKC
     FM310400 19009KT P6SM SKC=



000
FTUS45 KBOI 301726
TAFMYL
TAF
KMYL 301726Z 3018/3118 VRB04KT P6SM SKC=



000
FTUS45 KBOI 301726
TAFBKE
TAF
KBKE 301726Z 3018/3118 VRB04KT P6SM SKC=



000
FTUS45 KBOI 301726
TAFBOI
TAF
KBOI 301726Z 3018/3118 31008KT P6SM SKC
     FM310400 VRB04KT P6SM SKC
     FM311300 13007KT P6SM SKC=



000
FTUS45 KBOI 301120
TAFJER
TAF
KJER 301120Z 3012/3112 VRB06KT P6SM SKC=



000
FTUS45 KBOI 301120
TAFTWF
TAF
KTWF 301120Z 3012/3112 19009KT P6SM SKC
     FM301400 VRB06KT P6SM SKC
     FM310400 19009KT P6SM SKC=



000
FTUS45 KBOI 301120
TAFMYL
TAF
KMYL 301120Z 3012/3112 VRB06KT P6SM SKC=



000
FTUS45 KBOI 301120
TAFBOI
TAF
KBOI 301120Z 3012/3112 VRB06KT P6SM SKC
     FM302100 31008KT P6SM SKC
     FM310300 VRB06KT P6SM SKC=



000
FTUS45 KBOI 301120
TAFMYL
TAF
KMYL 301120Z 3012/3112 VRB06KT P6SM SKC=



000
FTUS45 KBOI 301120
TAFTWF
TAF
KTWF 301120Z 3012/3112 19009KT P6SM SKC
     FM301400 VRB06KT P6SM SKC
     FM310400 19009KT P6SM SKC=



000
FTUS45 KBOI 301120
TAFBOI
TAF
KBOI 301120Z 3012/3112 VRB06KT P6SM SKC
     FM302100 31008KT P6SM SKC
     FM310300 VRB06KT P6SM SKC=



000
FTUS45 KBOI 301120
TAFJER
TAF
KJER 301120Z 3012/3112 VRB06KT P6SM SKC=



000
FTUS45 KBOI 301120
TAFBNO
TAF
KBNO 301120Z 3012/3112 VRB06KT P6SM SKC=



000
FTUS45 KBOI 301120
TAFBNO
TAF
KBNO 301120Z 3012/3112 VRB06KT P6SM SKC=



000
FTUS45 KBOI 301120
TAFBKE
TAF
KBKE 301120Z 3012/3112 VRB06KT P6SM SKC=



000
FTUS45 KBOI 300520
TAFBNO
TAF
KBNO 300520Z 3006/3106 VRB06KT P6SM SKC=



000
FTUS45 KBOI 300520
TAFBOI
TAF
KBOI 300520Z 3006/3106 14007KT P6SM SKC
     FM302100 31007KT P6SM SKC=



000
FTUS45 KBOI 300520
TAFBOI
TAF
KBOI 300520Z 3006/3106 14007KT P6SM SKC
     FM302100 31007KT P6SM SKC=



000
FTUS45 KBOI 300520
TAFJER
TAF
KJER 300520Z 3006/3106 08008KT P6SM SKC
     FM302100 VRB06KT P6SM SKC=



000
FTUS45 KBOI 300520
TAFTWF
TAF
KTWF 300520Z 3006/3106 19008KT P6SM SKC
     FM302100 36007KT P6SM SKC
     FM310300 19005KT P6SM SKC=



000
FTUS45 KBOI 300520
TAFBNO
TAF
KBNO 300520Z 3006/3106 VRB06KT P6SM SKC=



000
FTUS45 KBOI 300520
TAFJER
TAF
KJER 300520Z 3006/3106 08008KT P6SM SKC
     FM302100 VRB06KT P6SM SKC=



000
FTUS45 KBOI 300520
TAFBKE
TAF
KBKE 300520Z 3006/3106 VRB06KT P6SM SKC=



000
FTUS45 KBOI 300520
TAFBKE
TAF
KBKE 300520Z 3006/3106 VRB06KT P6SM SKC=



000
FTUS45 KBOI 300520
TAFBOI
TAF
KBOI 300520Z 3006/3106 14007KT P6SM SKC
     FM302100 31007KT P6SM SKC=



000
FTUS45 KBOI 300520
TAFMYL
TAF
KMYL 300520Z 3006/3106 VRB06KT P6SM SKC=



000
FTUS45 KBOI 300520
TAFBKE
TAF
KBKE 300520Z 3006/3106 VRB06KT P6SM SKC=



000
FTUS45 KBOI 300520
TAFMYL
TAF
KMYL 300520Z 3006/3106 VRB06KT P6SM SKC=



000
FTUS45 KBOI 300520
TAFTWF
TAF
KTWF 300520Z 3006/3106 19008KT P6SM SKC
     FM302100 36007KT P6SM SKC
     FM310300 19005KT P6SM SKC=



000
FTUS45 KBOI 300520
TAFJER
TAF
KJER 300520Z 3006/3106 08008KT P6SM SKC
     FM302100 VRB06KT P6SM SKC=



000
FTUS45 KBOI 300520
TAFMYL
TAF
KMYL 300520Z 3006/3106 VRB06KT P6SM SKC=



000
FTUS45 KBOI 300520
TAFTWF
TAF
KTWF 300520Z 3006/3106 19008KT P6SM SKC
     FM302100 36007KT P6SM SKC
     FM310300 19005KT P6SM SKC=



000
FTUS45 KBOI 300520
TAFBKE
TAF
KBKE 300520Z 3006/3106 VRB06KT P6SM SKC=



000
FTUS45 KBOI 300520
TAFBNO
TAF
KBNO 300520Z 3006/3106 VRB06KT P6SM SKC=



000
FTUS45 KBOI 300520
TAFBNO
TAF
KBNO 300520Z 3006/3106 VRB06KT P6SM SKC=



000
FTUS45 KBOI 300520
TAFMYL
TAF
KMYL 300520Z 3006/3106 VRB06KT P6SM SKC=



000
FTUS45 KBOI 300520
TAFBOI
TAF
KBOI 300520Z 3006/3106 14007KT P6SM SKC
     FM302100 31007KT P6SM SKC=



000
FTUS45 KBOI 300520
TAFTWF
TAF
KTWF 300520Z 3006/3106 19008KT P6SM SKC
     FM302100 36007KT P6SM SKC
     FM310300 19005KT P6SM SKC=



000
FTUS45 KBOI 292320
TAFBOI
TAF
KBOI 292320Z 3000/3024 31007KT P6SM SKC
     FM300400 14007KT P6SM SKC
     FM302100 31007KT P6SM SKC=



000
FTUS45 KBOI 292320
TAFBNO
TAF
KBNO 292320Z 3000/3024 VRB06KT P6SM SKC=



000
FTUS45 KBOI 292320
TAFBNO
TAF
KBNO 292320Z 3000/3024 VRB06KT P6SM SKC=



000
FTUS45 KBOI 292320
TAFBKE
TAF
KBKE 292320Z 3000/3024 VRB06KT P6SM SKC=



000
FTUS45 KBOI 292320
TAFMYL
TAF
KMYL 292320Z 3000/3024 VRB06KT P6SM SKC=



000
FTUS45 KBOI 292320
TAFTWF
TAF
KTWF 292320Z 3000/3024 02009KT P6SM SKC
     FM300500 19008KT P6SM SKC
     FM302100 01007KT P6SM SKC=



000
FTUS45 KBOI 292320
TAFJER
TAF
KJER 292320Z 3000/3024 08008KT P6SM SKC
     FM302100 VRB06KT P6SM SKC=



000
FTUS45 KBOI 292320
TAFMYL
TAF
KMYL 292320Z 3000/3024 VRB06KT P6SM SKC=



000
FTUS45 KBOI 292320
TAFJER
TAF
KJER 292320Z 3000/3024 08008KT P6SM SKC
     FM302100 VRB06KT P6SM SKC=



000
FTUS45 KBOI 292320
TAFTWF
TAF
KTWF 292320Z 3000/3024 02009KT P6SM SKC
     FM300500 19008KT P6SM SKC
     FM302100 01007KT P6SM SKC=



000
FTUS45 KBOI 292320
TAFBOI
TAF
KBOI 292320Z 3000/3024 31007KT P6SM SKC
     FM300400 14007KT P6SM SKC
     FM302100 31007KT P6SM SKC=



000
FTUS45 KBOI 292320
TAFBKE
TAF
KBKE 292320Z 3000/3024 VRB06KT P6SM SKC=



000
FTUS45 KBOI 291727
TAFMYL
TAF
KMYL 291727Z 2918/3018 VRB05KT P6SM SKC=



000
FTUS45 KBOI 291727
TAFJER
TAF
KJER 291727Z 2918/3018 VRB05KT P6SM SKC=



000
FTUS45 KBOI 291727
TAFBKE
TAF
KBKE 291727Z 2918/3018 VRB06KT P6SM SKC=



000
FTUS45 KBOI 291727
TAFBOI
TAF
KBOI 291727Z 2918/3018 VRB04KT P6SM SKC
     FM292100 29007KT P6SM SKC
     FM300400 VRB04KT P6SM SKC=



000
FTUS45 KBOI 291727
TAFBNO
TAF
KBNO 291727Z 2918/3018 VRB05KT P6SM SKC=



000
FTUS45 KBOI 291727
TAFTWF
TAF
KTWF 291727Z 2918/3018 02009KT P6SM SKC
     FM300500 18008KT P6SM SKC=



000
FTUS45 KBOI 291727
TAFBNO
TAF
KBNO 291727Z 2918/3018 VRB05KT P6SM SKC=



000
FTUS45 KBOI 291727
TAFBOI
TAF
KBOI 291727Z 2918/3018 VRB04KT P6SM SKC
     FM292100 29007KT P6SM SKC
     FM300400 VRB04KT P6SM SKC=



000
FTUS45 KBOI 291727
TAFMYL
TAF
KMYL 291727Z 2918/3018 VRB05KT P6SM SKC=



000
FTUS45 KBOI 291727
TAFBOI
TAF
KBOI 291727Z 2918/3018 VRB04KT P6SM SKC
     FM292100 29007KT P6SM SKC
     FM300400 VRB04KT P6SM SKC=



000
FTUS45 KBOI 291727
TAFBNO
TAF
KBNO 291727Z 2918/3018 VRB05KT P6SM SKC=



000
FTUS45 KBOI 291727
TAFBKE
TAF
KBKE 291727Z 2918/3018 VRB06KT P6SM SKC=



000
FTUS45 KBOI 291727
TAFJER
TAF
KJER 291727Z 2918/3018 VRB05KT P6SM SKC=



000
FTUS45 KBOI 291727
TAFJER
TAF
KJER 291727Z 2918/3018 VRB05KT P6SM SKC=



000
FTUS45 KBOI 291727
TAFTWF
TAF
KTWF 291727Z 2918/3018 02009KT P6SM SKC
     FM300500 18008KT P6SM SKC=



000
FTUS45 KBOI 291727
TAFBKE
TAF
KBKE 291727Z 2918/3018 VRB06KT P6SM SKC=



000
FTUS45 KBOI 291727
TAFMYL
TAF
KMYL 291727Z 2918/3018 VRB05KT P6SM SKC=



000
FTUS45 KBOI 291120
TAFBNO
TAF
KBNO 291120Z 2912/3012 VRB06KT P6SM SKC=



000
FTUS45 KBOI 291120
TAFBOI
TAF
KBOI 291120Z 2912/3012 VRB04KT P6SM SKC
     FM292100 31008KT P6SM SKC
     FM300300 VRB04KT P6SM SKC=



000
FTUS45 KBOI 291120
TAFJER
TAF
KJER 291120Z 2912/3012 08007KT P6SM SKC
     FM291600 VRB05KT P6SM SKC
     FM300400 08007KT P6SM SKC=



000
FTUS45 KBOI 291120
TAFBNO
TAF
KBNO 291120Z 2912/3012 VRB06KT P6SM SKC=



000
FTUS45 KBOI 291120
TAFBKE
TAF
KBKE 291120Z 2912/3012 VRB06KT P6SM SKC=



000
FTUS45 KBOI 291120
TAFTWF
TAF
KTWF 291120Z 2912/3012 18008KT P6SM SKC
     FM291500 VRB06KT P6SM SKC
     FM300400 18009KT P6SM SKC=



000
FTUS45 KBOI 291120
TAFBOI
TAF
KBOI 291120Z 2912/3012 VRB04KT P6SM SKC
     FM292100 31008KT P6SM SKC
     FM300300 VRB04KT P6SM SKC=



000
FTUS45 KBOI 291120
TAFBKE
TAF
KBKE 291120Z 2912/3012 VRB06KT P6SM SKC=



000
FTUS45 KBOI 291120
TAFBNO
TAF
KBNO 291120Z 2912/3012 VRB06KT P6SM SKC=



000
FTUS45 KBOI 291120
TAFTWF
TAF
KTWF 291120Z 2912/3012 18008KT P6SM SKC
     FM291500 VRB06KT P6SM SKC
     FM300400 18009KT P6SM SKC=



000
FTUS45 KBOI 291120
TAFTWF
TAF
KTWF 291120Z 2912/3012 18008KT P6SM SKC
     FM291500 VRB06KT P6SM SKC
     FM300400 18009KT P6SM SKC=



000
FTUS45 KBOI 291120
TAFMYL
TAF
KMYL 291120Z 2912/3012 VRB05KT P6SM SKC=



000
FTUS45 KBOI 291120
TAFJER
TAF
KJER 291120Z 2912/3012 08007KT P6SM SKC
     FM291600 VRB05KT P6SM SKC
     FM300400 08007KT P6SM SKC=



000
FTUS45 KBOI 291120
TAFJER
TAF
KJER 291120Z 2912/3012 08007KT P6SM SKC
     FM291600 VRB05KT P6SM SKC
     FM300400 08007KT P6SM SKC=



000
FTUS45 KBOI 291120
TAFBNO
TAF
KBNO 291120Z 2912/3012 VRB06KT P6SM SKC=



000
FTUS45 KBOI 291120
TAFMYL
TAF
KMYL 291120Z 2912/3012 VRB05KT P6SM SKC=



000
FTUS45 KBOI 291120
TAFBOI
TAF
KBOI 291120Z 2912/3012 VRB04KT P6SM SKC
     FM292100 31008KT P6SM SKC
     FM300300 VRB04KT P6SM SKC=



000
FTUS45 KBOI 291120
TAFMYL
TAF
KMYL 291120Z 2912/3012 VRB05KT P6SM SKC=



000
FTUS45 KBOI 291120
TAFBKE
TAF
KBKE 291120Z 2912/3012 VRB06KT P6SM SKC=



000
FTUS45 KBOI 291120
TAFMYL
TAF
KMYL 291120Z 2912/3012 VRB05KT P6SM SKC=



000
FTUS45 KBOI 291120
TAFJER
TAF
KJER 291120Z 2912/3012 08007KT P6SM SKC
     FM291600 VRB05KT P6SM SKC
     FM300400 08007KT P6SM SKC=



000
FTUS45 KBOI 290520
TAFTWF
TAF
KTWF 290520Z 2906/3006 19008KT P6SM SKC
     FM292100 VRB06KT P6SM SKC
     FM300300 17008KT P6SM SKC=



000
FTUS45 KBOI 290520
TAFBOI
TAF
KBOI 290520Z 2906/3006 13005KT P6SM SKC
     FM292100 31008KT P6SM SKC
     FM300300 13005KT P6SM SKC=



000
FTUS45 KBOI 290520
TAFBOI
TAF
KBOI 290520Z 2906/3006 13005KT P6SM SKC
     FM292100 31008KT P6SM SKC
     FM300300 13005KT P6SM SKC=



000
FTUS45 KBOI 290520
TAFBNO
TAF
KBNO 290520Z 2906/3006 VRB06KT P6SM SKC=



000
FTUS45 KBOI 290520
TAFBKE
TAF
KBKE 290520Z 2906/3006 VRB06KT P6SM SKC=



000
FTUS45 KBOI 290520
TAFJER
TAF
KJER 290520Z 2906/3006 07007KT P6SM SKC
     FM292100 VRB05KT P6SM SKC
     FM300300 07007KT P6SM SKC=



000
FTUS45 KBOI 290520
TAFJER
TAF
KJER 290520Z 2906/3006 07007KT P6SM SKC
     FM292100 VRB05KT P6SM SKC
     FM300300 07007KT P6SM SKC=



000
FTUS45 KBOI 290520
TAFBKE
TAF
KBKE 290520Z 2906/3006 VRB06KT P6SM SKC=



000
FTUS45 KBOI 290520
TAFMYL
TAF
KMYL 290520Z 2906/3006 VRB06KT P6SM SKC=



000
FTUS45 KBOI 290520
TAFTWF
TAF
KTWF 290520Z 2906/3006 19008KT P6SM SKC
     FM292100 VRB06KT P6SM SKC
     FM300300 17008KT P6SM SKC=



    US Dept of Commerce
    National Oceanic and Atmospheric Administration
    National Weather Service
    1325 East West Highway
    Silver Spring, MD 20910
    Page Author: NWS Internet Services Team
Disclaimer
Information Quality
Credits
Glossary
Privacy Policy
Freedom of Information Act (FOIA)
About Us
Career Opportunities